createdAt,value
2019-06-01T00:01:06.641Z,17.10
2019-06-01T00:03:38.211Z,19.00
2019-06-01T00:06:08.797Z,18.27
2019-06-01T00:08:40.143Z,18.40
2019-06-01T00:11:11.387Z,18.30
2019-06-01T00:13:43.386Z,17.97
2019-06-01T00:16:14.220Z,19.73
2019-06-01T00:18:45.951Z,17.50
2019-06-01T00:21:16.503Z,17.10
2019-06-01T00:23:48.588Z,19.20
2019-06-01T00:26:19.079Z,20.20
2019-06-01T00:28:50.027Z,19.63
2019-06-01T00:31:20.403Z,20.13
2019-06-01T00:33:51.763Z,18.90
2019-06-01T00:36:22.206Z,17.53
2019-06-01T00:38:52.585Z,19.47
2019-06-01T00:41:23.366Z,17.33
2019-06-01T00:43:53.748Z,19.17
2019-06-01T00:46:24.857Z,19.53
2019-06-01T00:48:55.800Z,19.83
2019-06-01T00:51:26.465Z,18.80
2019-06-01T00:53:56.842Z,20.30
2019-06-01T00:56:27.708Z,19.53
2019-06-01T00:58:58.131Z,18.47
2019-06-01T01:01:28.478Z,18.80
2019-06-01T01:03:58.911Z,19.80
2019-06-01T01:06:29.593Z,19.17
2019-06-01T01:09:00.614Z,19.57
2019-06-01T01:11:30.984Z,17.93
2019-06-01T01:14:01.411Z,18.63
2019-06-01T01:16:32.716Z,19.27
2019-06-01T01:19:03.452Z,20.17
2019-06-01T01:21:34.291Z,19.67
2019-06-01T01:24:04.699Z,20.20
2019-06-01T01:26:56.825Z,20.07
2019-06-01T01:29:27.750Z,19.90
2019-06-01T01:31:58.180Z,22.07
2019-06-01T01:34:28.932Z,20.90
2019-06-01T01:36:59.306Z,21.93
2019-06-01T01:39:29.655Z,20.80
2019-06-01T01:42:00.054Z,20.40
2019-06-01T01:44:30.686Z,19.80
2019-06-01T01:47:01.140Z,20.03
2019-06-01T01:49:32.223Z,19.67
2019-06-01T01:52:02.969Z,19.93
2019-06-01T01:54:33.996Z,19.40
2019-06-01T01:57:07.088Z,17.63
2019-06-01T01:59:36.459Z,17.37
2019-06-01T02:02:07.451Z,18.13
2019-06-01T02:04:37.829Z,16.80
2019-06-01T02:07:08.180Z,16.93
2019-06-01T02:09:38.704Z,17.10
2019-06-01T02:12:09.062Z,17.20
2019-06-01T02:14:39.776Z,16.73
2019-06-01T02:17:10.201Z,17.27
2019-06-01T02:19:40.562Z,17.93
2019-06-01T02:22:11.380Z,19.70
2019-06-01T02:24:41.779Z,18.67
2019-06-01T02:27:12.523Z,18.00
2019-06-01T02:29:42.950Z,17.80
2019-06-01T02:32:14.059Z,18.13
2019-06-01T02:34:44.752Z,17.93
2019-06-01T02:37:15.123Z,18.77
2019-06-01T02:39:45.476Z,16.63
2019-06-01T02:42:16.313Z,17.80
2019-06-01T02:44:46.685Z,17.27
2019-06-01T02:47:17.147Z,17.40
2019-06-01T02:49:47.514Z,17.30
2019-06-01T02:52:17.920Z,17.70
2019-06-01T02:54:48.281Z,17.10
2019-06-01T02:57:18.625Z,17.43
2019-06-01T02:59:49.083Z,15.93
2019-06-01T03:02:19.808Z,18.30
2019-06-01T03:04:50.555Z,17.73
2019-06-01T03:07:20.931Z,16.77
2019-06-01T03:09:51.315Z,16.83
2019-06-01T03:12:21.721Z,17.10
2019-06-01T03:14:52.460Z,16.83
2019-06-01T03:17:24.972Z,16.63
2019-06-01T03:19:56.396Z,18.73
2019-06-01T03:22:26.813Z,19.30
2019-06-01T03:24:57.943Z,19.40
2019-06-01T03:27:28.316Z,18.73
2019-06-01T03:30:00.242Z,18.70
2019-06-01T03:32:36.785Z,19.73
2019-06-01T03:35:03.160Z,19.83
2019-06-01T03:37:33.881Z,18.73
2019-06-01T03:40:15.610Z,20.20
2019-06-01T03:42:41.790Z,20.80
2019-06-01T03:45:13.012Z,19.90
2019-06-01T03:47:44.415Z,20.33
2019-06-01T03:50:14.835Z,19.30
2019-06-01T03:52:45.236Z,19.87
2019-06-01T03:55:15.583Z,18.73
2019-06-01T03:57:46.737Z,18.90
2019-06-01T04:00:17.451Z,20.33
2019-06-01T04:02:47.824Z,20.23
2019-06-01T04:05:18.295Z,19.53
2019-06-01T04:07:48.674Z,19.80
2019-06-01T04:10:19.393Z,19.53
2019-06-01T04:12:50.074Z,21.47
2019-06-01T04:15:20.421Z,19.93
2019-06-01T04:17:51.492Z,20.87
2019-06-01T04:20:22.225Z,19.30
2019-06-01T04:22:52.627Z,20.50
2019-06-01T04:25:23.405Z,20.40
2019-06-01T04:27:53.775Z,19.10
2019-06-01T04:30:27.147Z,20.50
2019-06-01T04:32:57.564Z,20.43
2019-06-01T04:35:27.992Z,20.23
2019-06-01T04:37:58.375Z,20.90
2019-06-01T04:40:29.273Z,18.80
2019-06-01T04:42:59.966Z,19.83
2019-06-01T04:45:30.631Z,20.60
2019-06-01T04:48:01.354Z,20.95
2019-06-01T04:50:33.198Z,19.23
2019-06-01T04:53:04.663Z,19.30
2019-06-01T04:55:35.059Z,21.07
2019-06-01T04:58:06.678Z,19.70
2019-06-01T05:00:37.180Z,19.73
2019-06-01T05:03:09.238Z,18.20
2019-06-01T05:05:40.536Z,19.10
2019-06-01T05:08:12.596Z,21.30
2019-06-01T05:10:43.395Z,20.03
2019-06-01T05:13:13.741Z,20.73
2019-06-01T05:15:44.140Z,19.97
2019-06-01T05:18:17.936Z,20.43
2019-06-01T05:20:46.973Z,20.07
2019-06-01T05:23:17.385Z,18.27
2019-06-01T05:25:48.124Z,20.63
2019-06-01T05:28:18.530Z,18.67
2019-06-01T05:30:48.957Z,20.40
2019-06-01T05:33:35.336Z,19.43
2019-06-01T05:35:51.828Z,19.03
2019-06-01T05:38:22.247Z,19.37
2019-06-01T05:40:53.050Z,19.40
2019-06-01T05:43:23.432Z,19.70
2019-06-01T05:45:54.065Z,18.80
2019-06-01T05:48:29.826Z,20.20
2019-06-01T05:50:56.884Z,19.03
2019-06-01T05:53:27.324Z,20.43
2019-06-01T05:55:57.695Z,21.93
2019-06-01T05:58:29.340Z,20.30
2019-06-01T06:00:59.926Z,22.27
2019-06-01T06:03:40.126Z,19.60
2019-06-01T06:06:02.764Z,20.13
2019-06-01T06:08:33.139Z,19.93
2019-06-01T06:11:03.512Z,19.90
2019-06-01T06:13:33.937Z,20.63
2019-06-01T06:16:04.678Z,21.60
2019-06-01T06:18:35.033Z,19.33
2019-06-01T06:21:05.726Z,20.53
2019-06-01T06:23:36.093Z,19.10
2019-06-01T06:26:06.439Z,20.43
2019-06-01T06:28:36.884Z,21.07
2019-06-01T06:31:07.559Z,19.07
2019-06-01T06:33:38.328Z,20.20
2019-06-01T06:36:09.033Z,20.57
2019-06-01T06:38:39.898Z,20.10
2019-06-01T06:41:10.299Z,20.60
2019-06-01T06:43:41.071Z,19.23
2019-06-01T06:46:11.528Z,20.03
2019-06-01T06:48:41.982Z,20.10
2019-06-01T06:51:12.725Z,19.90
2019-06-01T06:53:43.598Z,20.43
2019-06-01T06:56:14.286Z,19.87
2019-06-01T06:58:45.050Z,18.80
2019-06-01T07:01:16.761Z,16.90
2019-06-01T07:03:47.398Z,17.43
2019-06-01T07:06:17.830Z,18.13
2019-06-01T07:08:48.933Z,17.10
2019-06-01T07:11:20.117Z,16.47
2019-06-01T07:13:51.534Z,16.67
2019-06-01T07:16:23.419Z,18.70
2019-06-01T07:18:53.905Z,16.43
2019-06-01T07:21:24.294Z,15.30
2019-06-01T07:23:54.750Z,16.43
2019-06-01T07:26:26.232Z,13.70
2019-06-01T07:28:57.102Z,15.65
2019-06-01T07:31:28.370Z,14.60
2019-06-01T07:33:58.814Z,12.87
2019-06-01T07:36:29.163Z,13.10
2019-06-01T07:38:59.608Z,13.10
2019-06-01T07:41:29.981Z,13.73
2019-06-01T07:44:00.785Z,13.20
2019-06-01T07:46:31.167Z,11.33
2019-06-01T07:49:02.114Z,11.00
2019-06-01T07:51:32.876Z,11.03
2019-06-01T07:54:15.955Z,11.40
2019-06-01T07:56:46.474Z,10.47
2019-06-01T07:59:17.201Z,10.53
2019-06-01T08:01:48.005Z,10.77
2019-06-01T08:04:18.380Z,9.57
2019-06-01T08:06:49.174Z,9.23
2019-06-01T08:09:22.057Z,8.00
2019-06-01T08:11:51.811Z,8.00
2019-06-01T08:14:22.915Z,8.23
2019-06-01T08:16:53.538Z,8.33
2019-06-01T08:19:23.932Z,7.50
2019-06-01T08:21:54.326Z,6.70
2019-06-01T08:24:24.774Z,6.80
2019-06-01T08:26:55.160Z,6.47
2019-06-01T08:29:26.617Z,6.50
2019-06-01T08:31:57.090Z,6.50
2019-06-01T08:34:27.453Z,5.30
2019-06-01T08:36:59.469Z,6.40
2019-06-01T08:39:29.516Z,5.83
2019-06-01T08:42:00.154Z,5.60
2019-06-01T08:44:31.680Z,5.20
2019-06-01T08:47:02.164Z,5.57
2019-06-01T08:49:32.675Z,6.47
2019-06-01T08:52:03.480Z,5.50
2019-06-01T08:54:34.322Z,5.10
2019-06-01T08:57:05.141Z,5.00
2019-06-01T08:59:35.499Z,5.10
2019-06-01T09:02:05.992Z,4.73
2019-06-01T09:04:36.741Z,5.20
2019-06-01T09:07:07.112Z,5.40
2019-06-01T09:09:37.483Z,5.70
2019-06-01T09:12:08.371Z,5.50
2019-06-01T09:14:38.715Z,4.97
2019-06-01T09:17:09.382Z,4.90
2019-06-01T09:19:39.764Z,4.53
2019-06-01T09:22:10.128Z,4.87
2019-06-01T09:24:40.499Z,4.50
2019-06-01T09:27:11.305Z,5.03
2019-06-01T09:29:44.688Z,4.30
2019-06-01T09:32:14.238Z,4.80
2019-06-01T09:34:44.705Z,4.30
2019-06-01T09:37:15.411Z,4.20
2019-06-01T09:39:46.071Z,4.17
2019-06-01T09:42:16.438Z,4.13
2019-06-01T09:44:46.852Z,4.87
2019-06-01T09:47:17.494Z,4.47
2019-06-01T09:49:47.855Z,3.53
2019-06-01T09:52:18.225Z,3.73
2019-06-01T09:54:48.614Z,4.67
2019-06-01T09:57:19.083Z,4.13
2019-06-01T09:59:49.768Z,5.13
2019-06-01T10:02:20.153Z,4.77
2019-06-01T10:04:50.902Z,4.30
2019-06-01T10:07:21.292Z,5.17
2019-06-01T10:09:52.018Z,4.97
2019-06-01T10:12:22.659Z,4.47
2019-06-01T10:14:53.022Z,5.80
2019-06-01T10:17:23.403Z,5.60
2019-06-01T10:19:53.778Z,5.40
2019-06-01T10:22:24.160Z,5.20
2019-06-01T10:24:55.249Z,4.80
2019-06-01T10:27:25.665Z,4.80
2019-06-01T10:29:56.327Z,6.40
2019-06-01T10:32:26.718Z,5.70
2019-06-01T10:34:57.096Z,4.50
2019-06-01T10:37:27.861Z,5.43
2019-06-01T10:39:58.234Z,5.40
2019-06-01T10:42:28.597Z,5.37
2019-06-01T10:44:59.610Z,4.47
2019-06-01T10:47:29.958Z,5.30
2019-06-01T10:50:00.766Z,4.43
2019-06-01T10:52:32.190Z,5.30
2019-06-01T10:55:02.949Z,4.80
2019-06-01T10:57:34.502Z,4.87
2019-06-01T11:00:09.205Z,4.50
2019-06-01T11:02:40.841Z,4.13
2019-06-01T11:05:11.378Z,5.00
2019-06-01T11:07:42.969Z,3.57
2019-06-01T11:10:13.957Z,3.23
2019-06-01T11:12:44.307Z,3.67
2019-06-01T11:15:14.646Z,3.50
2019-06-01T11:17:45.058Z,3.80
2019-06-01T11:20:15.401Z,3.83
2019-06-01T11:22:45.769Z,3.60
2019-06-01T11:25:16.165Z,3.73
2019-06-01T11:27:46.568Z,3.60
2019-06-01T11:30:17.202Z,3.27
2019-06-01T11:32:47.911Z,4.07
2019-06-01T11:35:18.547Z,3.73
2019-06-01T11:37:48.941Z,3.27
2019-06-01T11:40:20.114Z,3.80
2019-06-01T11:42:50.983Z,3.30
2019-06-01T11:45:21.709Z,3.00
2019-06-01T11:47:52.093Z,2.67
2019-06-01T11:50:22.508Z,2.93
2019-06-01T11:52:52.889Z,3.33
2019-06-01T11:55:23.318Z,3.10
2019-06-01T11:57:53.649Z,2.73
2019-06-01T12:00:24.701Z,2.73
2019-06-01T12:02:55.159Z,3.30
2019-06-01T12:05:25.714Z,3.50
2019-06-01T12:07:56.538Z,2.80
2019-06-01T12:10:27.229Z,2.40
2019-06-01T12:12:58.348Z,2.23
2019-06-01T12:15:29.081Z,2.63
2019-06-01T12:17:59.806Z,2.30
2019-06-01T12:20:30.162Z,2.27
2019-06-01T12:23:00.544Z,2.70
2019-06-01T12:25:30.954Z,2.33
2019-06-01T12:28:01.333Z,2.77
2019-06-01T12:30:31.669Z,2.40
2019-06-01T12:33:02.591Z,2.73
2019-06-01T12:35:33.237Z,2.50
2019-06-01T12:38:06.943Z,2.40
2019-06-01T12:40:36.065Z,2.90
2019-06-01T12:43:06.425Z,2.53
2019-06-01T12:45:36.833Z,3.03
2019-06-01T12:48:07.260Z,3.30
2019-06-01T12:50:37.645Z,2.67
2019-06-01T12:53:07.999Z,2.20
2019-06-01T12:55:38.950Z,2.43
2019-06-01T12:58:09.633Z,2.57
2019-06-01T13:00:40.391Z,2.50
2019-06-01T13:03:10.938Z,2.12
2019-06-01T13:05:41.575Z,2.20
2019-06-01T13:08:12.336Z,2.17
2019-06-01T13:10:43.134Z,2.60
2019-06-01T13:13:14.283Z,2.40
2019-06-01T13:15:45.248Z,2.00
2019-06-01T13:18:15.660Z,2.13
2019-06-01T13:20:47.551Z,2.80
2019-06-01T13:23:18.349Z,2.00
2019-06-01T13:25:49.681Z,2.03
2019-06-01T13:28:35.037Z,1.83
2019-06-01T13:30:52.991Z,1.80
2019-06-01T13:33:23.876Z,2.13
2019-06-01T13:35:54.590Z,2.07
2019-06-01T13:38:25.744Z,2.00
2019-06-01T13:40:56.110Z,2.10
2019-06-01T13:43:26.451Z,1.63
2019-06-01T13:45:57.086Z,2.10
2019-06-01T13:48:27.710Z,2.40
2019-06-01T13:50:58.072Z,2.07
2019-06-01T13:53:28.499Z,1.87
2019-06-01T13:55:58.900Z,2.17
2019-06-01T13:58:29.258Z,1.80
2019-06-01T14:00:59.953Z,2.30
2019-06-01T14:03:30.327Z,2.10
2019-06-01T14:06:01.143Z,2.20
2019-06-01T14:08:31.890Z,2.23
2019-06-01T14:11:02.275Z,1.90
2019-06-01T14:13:32.694Z,1.73
2019-06-01T14:16:03.749Z,1.93
2019-06-01T14:18:34.358Z,1.67
2019-06-01T14:21:05.333Z,2.07
2019-06-01T14:23:36.041Z,1.67
2019-06-01T14:26:06.799Z,1.90
2019-06-01T14:28:37.198Z,1.90
2019-06-01T14:31:07.587Z,2.37
2019-06-01T14:33:38.110Z,1.63
2019-06-01T14:36:08.492Z,1.90
2019-06-01T14:38:47.099Z,1.80
2019-06-01T14:41:12.397Z,1.97
2019-06-01T14:43:43.343Z,2.07
2019-06-01T14:46:13.729Z,1.83
2019-06-01T14:48:44.425Z,1.60
2019-06-01T14:51:15.320Z,1.97
2019-06-01T14:53:45.672Z,1.70
2019-06-01T14:56:16.095Z,1.70
2019-06-01T14:58:47.741Z,1.93
2019-06-01T15:01:31.880Z,1.50
2019-06-01T15:03:50.765Z,1.60
2019-06-01T15:06:21.416Z,1.60
2019-06-01T15:09:13.163Z,1.80
2019-06-01T15:11:23.881Z,2.50
2019-06-01T15:13:54.517Z,1.37
2019-06-01T15:16:25.466Z,2.03
2019-06-01T15:18:56.147Z,1.77
2019-06-01T15:21:26.625Z,2.20
2019-06-01T15:23:58.703Z,1.63
2019-06-01T15:26:29.282Z,1.80
2019-06-01T15:28:59.615Z,1.60
2019-06-01T15:31:29.980Z,1.47
2019-06-01T15:34:01.822Z,1.53
2019-06-01T15:36:32.904Z,1.50
2019-06-01T15:39:03.366Z,1.53
2019-06-01T15:41:34.078Z,1.47
2019-06-01T15:44:07.179Z,1.60
2019-06-01T15:46:37.548Z,1.70
2019-06-01T15:49:07.962Z,1.30
2019-06-01T15:51:38.320Z,1.23
2019-06-01T15:54:08.979Z,1.57
2019-06-01T15:56:39.416Z,1.47
2019-06-01T15:59:09.775Z,1.73
2019-06-01T16:01:40.115Z,1.70
2019-06-01T16:04:10.524Z,1.67
2019-06-01T16:06:40.880Z,1.90
2019-06-01T16:09:11.614Z,1.43
2019-06-01T16:11:42.687Z,1.50
2019-06-01T16:14:13.466Z,1.67
2019-06-01T16:16:44.574Z,1.80
2019-06-01T16:19:14.934Z,1.63
2019-06-01T16:21:45.324Z,1.90
2019-06-01T16:24:15.666Z,1.67
2019-06-01T16:26:46.075Z,1.83
2019-06-01T16:29:16.419Z,2.20
2019-06-01T16:31:46.872Z,2.00
2019-06-01T16:34:17.258Z,1.83
2019-06-01T16:36:47.639Z,1.70
2019-06-01T16:39:18.059Z,1.77
2019-06-01T16:41:48.449Z,1.40
2019-06-01T16:44:20.088Z,1.70
2019-06-01T16:46:50.532Z,1.53
2019-06-01T16:49:21.158Z,1.63
2019-06-01T16:51:59.187Z,1.50
2019-06-01T16:54:29.803Z,2.30
2019-06-01T16:57:00.139Z,1.60
2019-06-01T16:59:31.082Z,1.60
2019-06-01T17:02:01.498Z,1.57
2019-06-01T17:04:31.866Z,1.67
2019-06-01T17:07:05.668Z,1.77
2019-06-01T17:09:34.349Z,1.77
2019-06-01T17:12:05.254Z,1.67
2019-06-01T17:14:35.898Z,2.23
2019-06-01T17:17:07.463Z,2.13
2019-06-01T17:19:38.289Z,1.73
2019-06-01T17:22:08.626Z,1.87
2019-06-01T17:24:39.101Z,1.67
2019-06-01T17:27:09.777Z,1.27
2019-06-01T17:29:40.138Z,2.17
2019-06-01T17:32:23.516Z,1.90
2019-06-01T17:34:42.948Z,1.37
2019-06-01T17:37:13.713Z,1.57
2019-06-01T17:39:44.048Z,1.40
2019-06-01T17:42:14.466Z,1.87
2019-06-01T17:44:44.803Z,1.90
2019-06-01T17:47:15.363Z,1.53
2019-06-01T17:49:46.082Z,2.20
2019-06-01T17:52:16.446Z,1.97
2019-06-01T17:54:46.863Z,2.33
2019-06-01T17:57:17.339Z,1.80
2019-06-01T17:59:47.694Z,1.80
2019-06-01T18:02:18.447Z,2.13
2019-06-01T18:04:48.837Z,1.57
2019-06-01T18:07:19.181Z,2.07
2019-06-01T18:09:49.936Z,1.83
2019-06-01T18:12:20.344Z,1.90
2019-06-01T18:14:50.755Z,1.87
2019-06-01T18:17:21.386Z,1.90
2019-06-01T18:19:52.192Z,2.20
2019-06-01T18:22:22.897Z,2.13
2019-06-01T18:24:53.287Z,2.73
2019-06-01T18:27:23.703Z,1.63
2019-06-01T18:29:54.035Z,2.00
2019-06-01T18:32:24.766Z,1.90
2019-06-01T18:34:55.460Z,1.93
2019-06-01T18:37:25.829Z,2.30
2019-06-01T18:39:56.231Z,1.60
2019-06-01T18:42:27.089Z,2.20
2019-06-01T18:44:57.481Z,2.00
2019-06-01T18:47:32.111Z,2.50
2019-06-01T18:50:00.252Z,2.13
2019-06-01T18:52:30.621Z,2.23
2019-06-01T18:55:00.975Z,1.97
2019-06-01T18:57:31.581Z,2.13
2019-06-01T19:00:02.360Z,2.43
2019-06-01T19:02:32.690Z,2.50
2019-06-01T19:05:04.794Z,2.27
2019-06-01T19:07:35.702Z,2.23
2019-06-01T19:10:09.494Z,2.57
2019-06-01T19:12:39.837Z,2.60
2019-06-01T19:15:24.481Z,2.53
2019-06-01T19:17:42.677Z,2.70
2019-06-01T19:20:15.331Z,2.93
2019-06-01T19:22:45.792Z,3.10
2019-06-01T19:25:17.340Z,3.20
2019-06-01T19:27:48.109Z,3.40
2019-06-01T19:30:37.776Z,3.10
2019-06-01T19:33:10.948Z,3.73
2019-06-01T19:35:41.062Z,4.00
2019-06-01T19:38:13.243Z,3.80
2019-06-01T19:40:43.800Z,2.57
2019-06-01T19:43:15.541Z,3.60
2019-06-01T19:45:46.107Z,3.47
2019-06-01T19:48:16.806Z,3.30
2019-06-01T19:50:47.257Z,3.40
2019-06-01T19:53:18.887Z,3.37
2019-06-01T19:55:49.435Z,3.97
2019-06-01T19:58:20.119Z,3.63
2019-06-01T20:00:50.935Z,3.60
2019-06-01T20:03:22.661Z,3.83
2019-06-01T20:05:53.446Z,3.47
2019-06-01T20:08:23.826Z,3.83
2019-06-01T20:10:54.188Z,4.10
2019-06-01T20:13:24.563Z,4.87
2019-06-01T20:15:54.929Z,4.30
2019-06-01T20:18:25.267Z,4.43
2019-06-01T20:20:55.709Z,4.53
2019-06-01T20:23:26.452Z,4.67
2019-06-01T20:25:57.188Z,4.20
2019-06-01T20:28:27.545Z,4.53
2019-06-01T20:30:57.907Z,4.80
2019-06-01T20:33:28.336Z,5.13
2019-06-01T20:35:58.744Z,4.93
2019-06-01T20:38:29.108Z,5.70
2019-06-01T20:40:59.839Z,4.93
2019-06-01T20:43:30.212Z,5.53
2019-06-01T20:46:00.596Z,5.73
2019-06-01T20:48:30.963Z,6.67
2019-06-01T20:51:01.635Z,7.40
2019-06-01T20:53:32.346Z,7.87
2019-06-01T20:56:02.759Z,7.40
2019-06-01T20:58:33.590Z,7.37
2019-06-01T21:01:04.186Z,6.67
2019-06-01T21:03:34.558Z,7.30
2019-06-01T21:06:05.265Z,7.43
2019-06-01T21:08:35.656Z,7.50
2019-06-01T21:11:06.061Z,8.07
2019-06-01T21:13:36.400Z,7.03
2019-06-01T21:16:06.750Z,7.27
2019-06-01T21:18:37.149Z,7.40
2019-06-01T21:21:07.517Z,6.90
2019-06-01T21:23:37.858Z,7.03
2019-06-01T21:26:08.270Z,6.17
2019-06-01T21:28:38.608Z,6.50
2019-06-01T21:31:08.973Z,7.43
2019-06-01T21:33:39.447Z,6.30
2019-06-01T21:36:09.784Z,6.63
2019-06-01T21:38:40.199Z,8.27
2019-06-01T21:41:11.227Z,10.30
2019-06-01T21:43:41.923Z,9.73
2019-06-01T21:46:12.319Z,10.43
2019-06-01T21:48:43.230Z,9.53
2019-06-01T21:51:13.563Z,9.83
2019-06-01T21:53:43.960Z,9.80
2019-06-01T21:56:17.450Z,9.87
2019-06-01T21:58:46.531Z,10.50
2019-06-01T22:01:16.903Z,10.60
2019-06-01T22:03:47.248Z,10.50
2019-06-01T22:06:18.956Z,9.93
2019-06-01T22:08:52.611Z,10.73
2019-06-01T22:11:21.641Z,9.73
2019-06-01T22:13:52.200Z,8.93
2019-06-01T22:16:23.688Z,9.40
2019-06-01T22:18:54.463Z,10.53
2019-06-01T22:21:25.868Z,10.73
2019-06-01T22:23:56.652Z,13.63
2019-06-01T22:26:28.274Z,13.23
2019-06-01T22:28:58.868Z,12.13
2019-06-01T22:31:29.275Z,11.07
2019-06-01T22:33:59.996Z,12.37
2019-06-01T22:36:31.711Z,13.60
2019-06-01T22:39:02.178Z,12.00
2019-06-01T22:41:33.073Z,10.37
2019-06-01T22:44:03.441Z,14.47
2019-06-01T22:46:34.238Z,13.20
2019-06-01T22:49:04.650Z,12.40
2019-06-01T22:51:35.027Z,12.73
2019-06-01T22:54:05.483Z,11.90
2019-06-01T22:56:35.913Z,12.20
2019-06-01T22:59:06.751Z,10.97
2019-06-01T23:01:38.353Z,13.30
2019-06-01T23:04:08.627Z,12.90
2019-06-01T23:06:39.017Z,12.77
2019-06-01T23:09:09.661Z,13.60
2019-06-01T23:11:40.106Z,14.00
2019-06-01T23:14:23.502Z,14.33
2019-06-01T23:16:53.900Z,13.60
2019-06-01T23:19:24.282Z,14.10
2019-06-01T23:21:54.651Z,14.63
2019-06-01T23:24:26.090Z,14.60
2019-06-01T23:26:56.756Z,14.30
2019-06-01T23:29:28.092Z,14.43
2019-06-01T23:31:58.857Z,14.80
2019-06-01T23:34:30.544Z,13.93
2019-06-01T23:37:01.304Z,13.60
2019-06-01T23:39:32.980Z,16.23
2019-06-01T23:42:03.388Z,14.97
2019-06-01T23:44:35.051Z,15.73
2019-06-01T23:47:06.254Z,14.13
2019-06-01T23:49:36.875Z,14.50
2019-06-01T23:52:07.287Z,14.67
2019-06-01T23:54:37.635Z,13.63
2019-06-01T23:57:08.010Z,14.00
2019-06-01T23:59:38.819Z,13.20
